createdAt,value
2022-08-24T00:00:10.126Z,18.79
2022-08-24T00:01:13.813Z,18.76
2022-08-24T00:02:16.304Z,18.64
2022-08-24T00:03:18.615Z,18.64
2022-08-24T00:04:20.178Z,18.56
2022-08-24T00:05:23.003Z,18.52
2022-08-24T00:06:25.958Z,18.50
2022-08-24T00:07:28.217Z,18.49
2022-08-24T00:08:31.008Z,18.51
2022-08-24T00:09:32.836Z,18.45
2022-08-24T00:10:34.494Z,18.41
2022-08-24T00:11:35.986Z,18.51
2022-08-24T00:12:37.529Z,18.62
2022-08-24T00:13:39.451Z,18.57
2022-08-24T00:14:41.385Z,18.50
2022-08-24T00:15:46.025Z,18.59
2022-08-24T00:16:47.661Z,18.68
2022-08-24T00:17:49.211Z,18.70
2022-08-24T00:18:50.744Z,18.64
2022-08-24T00:19:52.269Z,18.62
2022-08-24T00:20:55.229Z,18.61
2022-08-24T00:21:57.397Z,18.58
2022-08-24T00:22:58.964Z,18.60
2022-08-24T00:24:00.439Z,18.68
2022-08-24T00:25:05.665Z,18.67
2022-08-24T00:26:07.627Z,18.67
2022-08-24T00:27:09.731Z,18.72
2022-08-24T00:28:11.383Z,18.73
2022-08-24T00:29:13.258Z,18.74
2022-08-24T00:30:18.944Z,18.78
2022-08-24T00:31:20.465Z,18.78
2022-08-24T00:32:21.961Z,18.81
2022-08-24T00:33:23.422Z,18.83
2022-08-24T00:34:25.254Z,18.84
2022-08-24T00:35:27.254Z,18.87
2022-08-24T00:36:30.314Z,18.88
2022-08-24T00:37:31.805Z,18.88
2022-08-24T00:38:34.034Z,18.85
2022-08-24T00:39:35.509Z,18.81
2022-08-24T00:40:41.266Z,18.76
2022-08-24T00:41:44.932Z,18.73
2022-08-24T00:42:46.741Z,18.63
2022-08-24T00:43:52.901Z,18.69
2022-08-24T00:44:54.373Z,18.60
2022-08-24T00:46:12.775Z,18.48
2022-08-24T00:47:18.269Z,18.45
2022-08-24T00:48:23.160Z,18.48
2022-08-24T00:49:29.154Z,18.49
2022-08-24T00:50:37.107Z,18.57
2022-08-24T00:51:49.986Z,18.60
2022-08-24T00:52:55.622Z,18.56
2022-08-24T00:54:01.918Z,18.54
2022-08-24T00:55:08.507Z,18.54
2022-08-24T00:56:14.651Z,18.48
2022-08-24T00:57:20.334Z,18.40
2022-08-24T00:58:27.867Z,18.41
2022-08-24T00:59:34.552Z,18.41
2022-08-24T01:00:42.537Z,18.47
2022-08-24T01:01:51.886Z,18.39
2022-08-24T01:02:59.509Z,18.45
2022-08-24T01:04:01.162Z,18.50
2022-08-24T01:05:07.412Z,18.52
2022-08-24T01:06:10.626Z,18.50
2022-08-24T01:07:13.449Z,18.55
2022-08-24T01:08:15.736Z,18.54
2022-08-24T01:09:17.323Z,18.34
2022-08-24T01:10:24.357Z,18.10
2022-08-24T01:11:33.833Z,18.15
2022-08-24T01:12:37.533Z,18.15
2022-08-24T01:13:41.726Z,18.05
2022-08-24T01:14:43.882Z,18.00
2022-08-24T01:15:48.625Z,18.12
2022-08-24T01:16:50.878Z,18.18
2022-08-24T01:17:52.497Z,18.10
2022-08-24T01:18:54.131Z,18.00
2022-08-24T01:19:58.342Z,17.97
2022-08-24T01:21:09.901Z,17.99
2022-08-24T01:22:28.658Z,18.05
2022-08-24T01:23:38.855Z,18.07
2022-08-24T01:24:40.765Z,18.05
2022-08-24T01:25:44.353Z,18.08
2022-08-24T01:26:48.062Z,18.05
2022-08-24T01:27:51.886Z,18.06
2022-08-24T01:29:00.855Z,18.04
2022-08-24T01:30:07.916Z,17.98
2022-08-24T01:31:11.694Z,17.98
2022-08-24T01:32:13.903Z,18.01
2022-08-24T01:33:24.241Z,17.94
2022-08-24T01:34:25.814Z,17.88
2022-08-24T01:35:28.515Z,17.83
2022-08-24T01:36:33.767Z,17.75
2022-08-24T01:37:36.144Z,17.64
2022-08-24T01:38:40.442Z,17.64
2022-08-24T01:39:45.967Z,17.77
2022-08-24T01:40:52.486Z,17.64
2022-08-24T01:41:54.178Z,17.50
2022-08-24T01:42:55.704Z,17.70
2022-08-24T01:43:58.075Z,17.58
2022-08-24T01:44:59.558Z,17.54
2022-08-24T01:46:01.052Z,17.56
2022-08-24T01:47:07.342Z,17.52
2022-08-24T01:48:09.109Z,17.42
2022-08-24T01:49:10.829Z,17.29
2022-08-24T01:50:12.804Z,17.22
2022-08-24T01:51:14.356Z,17.09
2022-08-24T01:52:18.785Z,17.00
2022-08-24T01:53:20.283Z,16.95
2022-08-24T01:54:23.277Z,16.85
2022-08-24T01:55:24.975Z,16.84
2022-08-24T01:56:26.465Z,16.81
2022-08-24T01:57:31.840Z,16.81
2022-08-24T01:58:33.374Z,16.70
2022-08-24T01:59:35.201Z,16.74
2022-08-24T02:00:37.364Z,16.75
2022-08-24T02:01:42.067Z,16.62
2022-08-24T02:02:44.475Z,16.63
2022-08-24T02:03:46.354Z,16.67
2022-08-24T02:04:53.689Z,16.65
2022-08-24T02:05:55.172Z,16.70
2022-08-24T02:06:56.650Z,16.73
2022-08-24T02:07:58.146Z,16.64
2022-08-24T02:09:00.093Z,16.63
2022-08-24T02:10:04.207Z,16.56
2022-08-24T02:11:06.306Z,16.45
2022-08-24T02:12:08.212Z,16.42
2022-08-24T02:13:09.948Z,16.39
2022-08-24T02:14:11.415Z,16.44
2022-08-24T02:15:15.050Z,16.38
2022-08-24T02:16:16.812Z,16.36
2022-08-24T02:17:18.955Z,16.37
2022-08-24T02:18:20.457Z,16.39
2022-08-24T02:19:21.983Z,16.31
2022-08-24T02:20:23.797Z,16.28
2022-08-24T02:21:25.941Z,16.17
2022-08-24T02:22:27.749Z,16.10
2022-08-24T02:23:29.441Z,16.00
2022-08-24T02:24:30.908Z,15.97
2022-08-24T02:25:33.840Z,15.92
2022-08-24T02:26:35.332Z,15.91
2022-08-24T02:27:36.811Z,15.90
2022-08-24T02:28:39.161Z,15.88
2022-08-24T02:29:40.622Z,15.88
2022-08-24T02:30:42.265Z,15.83
2022-08-24T02:31:43.964Z,15.80
2022-08-24T02:32:45.569Z,15.80
2022-08-24T02:33:47.093Z,15.79
2022-08-24T02:34:48.596Z,15.77
2022-08-24T02:35:51.256Z,15.72
2022-08-24T02:36:53.030Z,15.69
2022-08-24T02:37:54.510Z,15.62
2022-08-24T02:38:56.122Z,15.56
2022-08-24T02:39:57.704Z,15.54
2022-08-24T02:41:01.051Z,15.51
2022-08-24T02:42:02.619Z,15.46
2022-08-24T02:43:04.722Z,15.43
2022-08-24T02:44:06.754Z,15.43
2022-08-24T02:45:09.820Z,15.51
2022-08-24T02:46:17.880Z,15.43
2022-08-24T02:47:19.349Z,15.40
2022-08-24T02:48:20.877Z,15.34
2022-08-24T02:49:22.339Z,15.38
2022-08-24T02:50:24.062Z,15.49
2022-08-24T02:51:27.433Z,15.49
2022-08-24T02:52:31.140Z,15.50
2022-08-24T02:53:32.632Z,15.37
2022-08-24T02:54:34.158Z,15.35
2022-08-24T02:55:35.790Z,15.41
2022-08-24T02:56:38.617Z,15.45
2022-08-24T02:57:40.212Z,15.40
2022-08-24T02:58:41.717Z,15.19
2022-08-24T02:59:43.191Z,15.21
2022-08-24T03:00:46.354Z,15.08
2022-08-24T03:01:49.899Z,15.06
2022-08-24T03:02:52.110Z,15.07
2022-08-24T03:03:53.742Z,15.00
2022-08-24T03:04:55.252Z,15.02
2022-08-24T03:05:56.778Z,14.99
2022-08-24T03:06:58.245Z,14.94
2022-08-24T03:07:59.780Z,14.91
2022-08-24T03:09:02.299Z,14.95
2022-08-24T03:10:04.766Z,14.92
2022-08-24T03:11:06.561Z,14.91
2022-08-24T03:12:09.474Z,14.85
2022-08-24T03:13:10.957Z,14.85
2022-08-24T03:14:12.562Z,14.86
2022-08-24T03:15:14.420Z,14.86
2022-08-24T03:16:15.966Z,14.82
2022-08-24T03:17:17.488Z,14.89
2022-08-24T03:18:18.977Z,14.86
2022-08-24T03:19:26.224Z,14.78
2022-08-24T03:20:27.751Z,14.79
2022-08-24T03:21:29.301Z,14.83
2022-08-24T03:22:30.835Z,14.84
2022-08-24T03:23:32.313Z,14.85
2022-08-24T03:24:36.178Z,14.79
2022-08-24T03:25:37.647Z,14.76
2022-08-24T03:26:39.652Z,14.76
2022-08-24T03:27:47.058Z,14.79
2022-08-24T03:28:49.617Z,14.78
2022-08-24T03:29:51.314Z,14.77
2022-08-24T03:30:52.970Z,14.75
2022-08-24T03:31:54.543Z,14.76
2022-08-24T03:32:56.062Z,14.78
2022-08-24T03:33:57.589Z,14.77
2022-08-24T03:34:59.087Z,14.77
2022-08-24T03:36:00.803Z,14.72
2022-08-24T03:37:02.530Z,14.69
2022-08-24T03:38:04.000Z,14.62
2022-08-24T03:39:05.976Z,14.62
2022-08-24T03:40:22.333Z,14.66
2022-08-24T03:41:25.272Z,14.69
2022-08-24T03:42:26.860Z,14.66
2022-08-24T03:43:29.682Z,14.65
2022-08-24T03:44:31.380Z,14.66
2022-08-24T03:45:32.894Z,14.61
2022-08-24T03:46:36.637Z,14.55
2022-08-24T03:47:38.138Z,14.51
2022-08-24T03:48:42.381Z,14.46
2022-08-24T03:49:43.860Z,14.46
2022-08-24T03:50:45.363Z,14.41
2022-08-24T03:51:46.865Z,14.33
2022-08-24T03:52:49.055Z,14.33
2022-08-24T03:53:51.837Z,14.35
2022-08-24T03:54:53.486Z,14.41
2022-08-24T03:55:54.961Z,14.47
2022-08-24T03:56:56.442Z,14.46
2022-08-24T03:57:57.910Z,14.39
2022-08-24T03:59:00.868Z,14.28
2022-08-24T04:00:04.073Z,14.25
2022-08-24T04:01:06.361Z,14.15
2022-08-24T04:02:08.012Z,14.16
2022-08-24T04:03:12.618Z,14.08
2022-08-24T04:04:14.196Z,14.12
2022-08-24T04:05:15.664Z,14.03
2022-08-24T04:06:18.869Z,13.94
2022-08-24T04:07:20.532Z,13.95
2022-08-24T04:08:22.322Z,14.01
2022-08-24T04:09:23.996Z,13.94
2022-08-24T04:10:25.524Z,13.85
2022-08-24T04:11:29.107Z,13.84
2022-08-24T04:12:30.572Z,13.89
2022-08-24T04:13:32.090Z,13.89
2022-08-24T04:14:34.971Z,13.87
2022-08-24T04:15:39.746Z,13.76
2022-08-24T04:16:41.310Z,13.77
2022-08-24T04:17:42.857Z,13.73
2022-08-24T04:18:44.995Z,13.80
2022-08-24T04:19:46.474Z,13.79
2022-08-24T04:20:47.960Z,13.79
2022-08-24T04:21:49.460Z,13.71
2022-08-24T04:22:51.112Z,13.72
2022-08-24T04:23:53.453Z,13.70
2022-08-24T04:24:55.906Z,13.68
2022-08-24T04:26:02.669Z,13.59
2022-08-24T04:27:04.645Z,13.62
2022-08-24T04:28:06.174Z,13.59
2022-08-24T04:29:09.868Z,13.52
2022-08-24T04:30:14.435Z,13.44
2022-08-24T04:31:16.082Z,13.37
2022-08-24T04:32:17.620Z,13.31
2022-08-24T04:33:19.522Z,13.24
2022-08-24T04:34:21.188Z,13.23
2022-08-24T04:35:22.669Z,13.23
2022-08-24T04:36:24.160Z,13.17
2022-08-24T04:37:29.091Z,13.21
2022-08-24T04:38:30.838Z,13.19
2022-08-24T04:39:32.591Z,13.21
2022-08-24T04:40:34.638Z,13.20
2022-08-24T04:41:38.013Z,13.21
2022-08-24T04:42:40.532Z,13.25
2022-08-24T04:43:42.760Z,13.24
2022-08-24T04:44:44.582Z,13.25
2022-08-24T04:45:48.362Z,13.18
2022-08-24T04:46:49.968Z,13.18
2022-08-24T04:47:51.488Z,13.13
2022-08-24T04:48:53.061Z,13.08
2022-08-24T04:49:54.572Z,13.11
2022-08-24T04:51:01.156Z,13.11
2022-08-24T04:52:03.255Z,13.14
2022-08-24T04:53:05.780Z,13.19
2022-08-24T04:54:07.324Z,13.17
2022-08-24T04:55:09.429Z,13.10
2022-08-24T04:56:13.873Z,13.13
2022-08-24T04:57:18.127Z,13.14
2022-08-24T04:58:19.953Z,13.18
2022-08-24T04:59:21.434Z,13.20
2022-08-24T05:00:23.219Z,13.25
2022-08-24T05:01:28.216Z,13.38
2022-08-24T05:02:29.703Z,13.35
2022-08-24T05:03:31.192Z,13.31
2022-08-24T05:04:32.669Z,13.34
2022-08-24T05:05:35.128Z,13.37
2022-08-24T05:06:36.609Z,13.32
2022-08-24T05:07:38.765Z,13.34
2022-08-24T05:08:40.242Z,13.34
2022-08-24T05:09:41.743Z,13.31
2022-08-24T05:10:45.462Z,13.26
2022-08-24T05:11:50.138Z,13.19
2022-08-24T05:12:51.767Z,13.17
2022-08-24T05:13:54.349Z,13.19
2022-08-24T05:14:55.822Z,13.21
2022-08-24T05:15:57.347Z,13.22
2022-08-24T05:17:00.248Z,13.23
2022-08-24T05:18:04.598Z,13.26
2022-08-24T05:19:06.209Z,13.30
2022-08-24T05:20:08.693Z,13.36
2022-08-24T05:21:13.999Z,13.42
2022-08-24T05:22:15.540Z,13.43
2022-08-24T05:23:17.018Z,13.44
2022-08-24T05:24:18.613Z,13.46
2022-08-24T05:25:21.405Z,13.49
2022-08-24T05:26:25.109Z,13.48
2022-08-24T05:27:26.798Z,13.51
2022-08-24T05:28:28.258Z,13.52
2022-08-24T05:29:29.800Z,13.54
2022-08-24T05:30:31.846Z,13.55
2022-08-24T05:31:33.745Z,13.58
2022-08-24T05:32:36.692Z,13.56
2022-08-24T05:33:39.087Z,13.58
2022-08-24T05:34:40.581Z,13.64
2022-08-24T05:35:43.820Z,13.64
2022-08-24T05:36:46.599Z,13.67
2022-08-24T05:37:48.125Z,13.72
2022-08-24T05:38:51.483Z,13.75
2022-08-24T05:39:53.019Z,13.78
2022-08-24T05:40:54.533Z,13.82
2022-08-24T05:41:56.002Z,13.84
2022-08-24T05:42:57.599Z,13.85
2022-08-24T05:43:59.124Z,13.91
2022-08-24T05:45:00.814Z,13.89
2022-08-24T05:46:02.319Z,13.96
2022-08-24T05:47:04.109Z,13.93
2022-08-24T05:48:06.980Z,13.96
2022-08-24T05:49:08.907Z,14.00
2022-08-24T05:50:10.377Z,14.06
2022-08-24T05:51:12.751Z,14.08
2022-08-24T05:52:14.252Z,14.13
2022-08-24T05:53:15.714Z,14.19
2022-08-24T05:54:17.947Z,14.23
2022-08-24T05:55:19.459Z,14.31
2022-08-24T05:56:20.956Z,14.35
2022-08-24T05:57:24.281Z,14.45
2022-08-24T05:58:30.757Z,14.42
2022-08-24T05:59:32.896Z,14.49
2022-08-24T06:00:34.403Z,14.57
2022-08-24T06:01:36.010Z,14.67
2022-08-24T06:02:37.650Z,14.70
2022-08-24T06:03:40.666Z,14.67
2022-08-24T06:04:42.306Z,14.77
2022-08-24T06:05:45.165Z,14.85
2022-08-24T06:06:48.711Z,14.83
2022-08-24T06:07:50.403Z,14.85
2022-08-24T06:08:57.146Z,14.91
2022-08-24T06:10:09.829Z,14.86
2022-08-24T06:11:21.394Z,14.86
2022-08-24T06:12:22.861Z,14.92
2022-08-24T06:13:24.383Z,14.98
2022-08-24T06:14:27.118Z,14.92
2022-08-24T06:15:28.726Z,15.07
2022-08-24T06:16:30.521Z,14.96
2022-08-24T06:17:32.085Z,15.04
2022-08-24T06:18:34.074Z,15.00
2022-08-24T06:19:36.895Z,15.14
2022-08-24T06:20:40.874Z,15.15
2022-08-24T06:21:43.352Z,15.02
2022-08-24T06:22:44.816Z,14.97
2022-08-24T06:23:46.577Z,15.20
2022-08-24T06:24:48.064Z,15.20
2022-08-24T06:25:49.538Z,15.27
2022-08-24T06:26:51.009Z,15.08
2022-08-24T06:27:52.468Z,15.24
2022-08-24T06:28:54.134Z,15.21
2022-08-24T06:29:58.658Z,15.08
2022-08-24T06:31:04.880Z,15.30
2022-08-24T06:32:06.561Z,15.34
2022-08-24T06:33:08.094Z,15.24
2022-08-24T06:34:11.224Z,15.16
2022-08-24T06:35:14.106Z,15.44
2022-08-24T06:36:15.655Z,15.50
2022-08-24T06:37:21.647Z,15.49
2022-08-24T06:38:23.852Z,15.57
2022-08-24T06:39:25.697Z,15.59
2022-08-24T06:40:27.499Z,15.67
2022-08-24T06:41:29.759Z,15.70
2022-08-24T06:42:31.217Z,15.61
2022-08-24T06:43:32.740Z,15.64
2022-08-24T06:44:34.402Z,15.61
2022-08-24T06:45:35.910Z,15.66
2022-08-24T06:46:39.832Z,15.78
2022-08-24T06:47:41.509Z,15.69
2022-08-24T06:48:42.972Z,15.74
2022-08-24T06:49:44.672Z,16.01
2022-08-24T06:50:47.697Z,15.98
2022-08-24T06:51:50.918Z,16.03
2022-08-24T06:52:52.599Z,16.28
2022-08-24T06:53:54.863Z,16.35
2022-08-24T06:54:56.361Z,16.22
2022-08-24T06:55:59.263Z,16.39
2022-08-24T06:57:00.732Z,16.36
2022-08-24T06:58:02.552Z,16.55
2022-08-24T06:59:04.182Z,16.63
2022-08-24T07:00:06.795Z,16.78
2022-08-24T07:01:10.048Z,16.67
2022-08-24T07:02:11.652Z,16.62
2022-08-24T07:03:13.511Z,16.62
2022-08-24T07:04:15.568Z,16.71
2022-08-24T07:05:17.466Z,16.78
2022-08-24T07:06:21.085Z,17.09
2022-08-24T07:07:22.626Z,17.10
2022-08-24T07:08:24.467Z,17.07
2022-08-24T07:09:26.082Z,17.06
2022-08-24T07:10:28.008Z,16.97
2022-08-24T07:11:30.543Z,17.14
2022-08-24T07:12:32.026Z,17.18
2022-08-24T07:13:33.572Z,17.18
2022-08-24T07:14:35.033Z,17.30
2022-08-24T07:15:36.551Z,17.24
2022-08-24T07:16:38.117Z,17.30
2022-08-24T07:17:39.613Z,17.35
2022-08-24T07:18:42.024Z,17.36
2022-08-24T07:19:47.774Z,17.28
2022-08-24T07:20:49.515Z,17.13
2022-08-24T07:21:55.858Z,17.43
2022-08-24T07:22:57.340Z,17.55
2022-08-24T07:24:00.352Z,17.88
2022-08-24T07:25:01.882Z,17.84
2022-08-24T07:26:08.068Z,17.85
2022-08-24T07:27:09.546Z,17.81
2022-08-24T07:28:12.662Z,17.95
2022-08-24T07:29:45.737Z,17.80
2022-08-24T07:30:37.572Z,17.81
2022-08-24T07:31:39.970Z,17.84
2022-08-24T07:32:41.469Z,17.64
2022-08-24T07:33:42.954Z,17.71
2022-08-24T07:34:44.419Z,17.86
2022-08-24T07:35:45.885Z,17.84
2022-08-24T07:36:47.437Z,18.19
2022-08-24T07:37:50.263Z,18.05
2022-08-24T07:38:54.366Z,18.04
2022-08-24T07:39:55.884Z,18.21
2022-08-24T07:41:33.371Z,18.23
2022-08-24T07:42:29.507Z,18.46
2022-08-24T07:43:33.345Z,18.57
2022-08-24T07:44:35.054Z,18.67
2022-08-24T07:45:36.526Z,18.52
2022-08-24T07:46:38.687Z,18.70
2022-08-24T07:47:47.072Z,18.67
2022-08-24T07:49:05.043Z,18.62
2022-08-24T07:50:15.216Z,18.26
2022-08-24T07:51:18.511Z,18.38
2022-08-24T07:52:20.074Z,18.43
2022-08-24T07:53:27.908Z,18.37
2022-08-24T07:54:33.828Z,18.44
2022-08-24T07:55:35.296Z,18.42
2022-08-24T07:56:47.495Z,18.58
2022-08-24T07:57:49.078Z,18.77
2022-08-24T07:58:50.612Z,18.94
2022-08-24T07:59:58.225Z,18.93
2022-08-24T08:00:59.730Z,19.07
2022-08-24T08:02:01.342Z,19.23
2022-08-24T08:03:03.148Z,19.42
2022-08-24T08:04:05.530Z,19.61
2022-08-24T08:05:08.046Z,19.82
2022-08-24T08:06:16.204Z,19.48
2022-08-24T08:07:17.974Z,19.34
2022-08-24T08:08:19.867Z,19.17
2022-08-24T08:09:22.708Z,19.14
2022-08-24T08:10:24.481Z,19.40
2022-08-24T08:11:26.048Z,19.81
2022-08-24T08:12:27.571Z,19.78
2022-08-24T08:13:29.233Z,19.50
2022-08-24T08:14:30.717Z,19.40
2022-08-24T08:15:32.775Z,19.65
2022-08-24T08:16:34.399Z,19.68
2022-08-24T08:19:11.025Z,20.28
2022-08-24T08:20:13.450Z,19.97
2022-08-24T08:21:20.378Z,19.77
2022-08-24T08:22:21.862Z,19.87
2022-08-24T08:23:23.656Z,19.87
2022-08-24T08:24:26.560Z,19.96
2022-08-24T08:25:28.093Z,19.73
2022-08-24T08:26:29.613Z,20.02
2022-08-24T08:27:31.174Z,19.98
2022-08-24T08:29:58.955Z,19.99
2022-08-24T08:31:01.614Z,20.15
2022-08-24T08:32:03.689Z,20.04
2022-08-24T08:33:05.315Z,20.02
2022-08-24T08:34:07.752Z,19.99
2022-08-24T08:35:09.414Z,20.17
2022-08-24T08:36:13.128Z,20.15
2022-08-24T08:37:15.144Z,20.22
2022-08-24T08:38:16.841Z,20.65
2022-08-24T08:39:20.924Z,20.31
2022-08-24T08:40:40.894Z,20.82
2022-08-24T08:42:16.065Z,20.67
2022-08-24T08:43:33.078Z,20.74
2022-08-24T08:45:00.145Z,20.65
2022-08-24T08:46:17.338Z,21.12
2022-08-24T08:47:41.733Z,20.75
2022-08-24T08:49:02.529Z,21.15
2022-08-24T08:50:13.768Z,21.06
2022-08-24T08:52:08.869Z,21.22
2022-08-24T08:53:44.102Z,21.17
2022-08-24T08:54:55.283Z,21.53
2022-08-24T08:56:06.268Z,21.09
2022-08-24T08:57:30.735Z,21.32
2022-08-24T08:58:57.154Z,21.05
2022-08-24T09:00:16.073Z,20.99
2022-08-24T09:01:32.603Z,21.08
2022-08-24T09:02:52.888Z,21.24
2022-08-24T09:04:20.881Z,21.99
2022-08-24T09:07:16.232Z,21.87
2022-08-24T09:08:27.863Z,21.83
2022-08-24T09:09:46.042Z,22.58
2022-08-24T09:10:55.848Z,22.65
2022-08-24T09:12:08.222Z,22.02
2022-08-24T09:13:29.382Z,21.97
2022-08-24T09:15:07.313Z,21.90
2022-08-24T09:16:23.802Z,22.11
2022-08-24T09:17:41.616Z,22.62
2022-08-24T09:18:54.375Z,22.17
2022-08-24T09:20:10.329Z,22.45
2022-08-24T09:21:27.463Z,23.15
2022-08-24T09:22:29.707Z,22.97
2022-08-24T09:23:41.381Z,22.98
2022-08-24T09:24:59.921Z,23.01
2022-08-24T09:26:07.964Z,22.43
2022-08-24T09:27:24.007Z,22.63
2022-08-24T09:28:37.034Z,22.36
2022-08-24T09:30:03.327Z,22.62
2022-08-24T09:31:25.142Z,22.12
2022-08-24T09:32:55.107Z,22.41
2022-08-24T09:34:08.308Z,22.42
2022-08-24T09:35:15.374Z,22.10
2022-08-24T09:36:46.869Z,22.51
2022-08-24T09:37:58.723Z,22.55
2022-08-24T09:39:06.648Z,22.24
2022-08-24T09:40:30.729Z,21.99
2022-08-24T09:42:01.606Z,22.19
2022-08-24T09:43:52.072Z,21.99
2022-08-24T09:45:20.219Z,22.18
2022-08-24T09:46:59.183Z,22.45
2022-08-24T09:48:32.676Z,22.58
2022-08-24T09:50:00.180Z,22.84
2022-08-24T09:51:34.511Z,22.46
2022-08-24T09:53:19.631Z,22.75
2022-08-24T09:54:44.417Z,23.02
2022-08-24T09:56:01.228Z,23.08
2022-08-24T09:57:20.889Z,22.55
2022-08-24T09:58:36.681Z,22.45
2022-08-24T09:59:57.713Z,22.45
2022-08-24T10:01:10.169Z,22.52
2022-08-24T10:02:33.384Z,22.25
2022-08-24T10:03:48.888Z,22.21
2022-08-24T10:04:59.718Z,22.63
2022-08-24T10:06:12.103Z,22.21
2022-08-24T10:07:18.340Z,22.53
2022-08-24T10:08:32.797Z,21.92
2022-08-24T10:09:49.490Z,22.20
2022-08-24T10:11:05.265Z,22.32
2022-08-24T10:12:18.858Z,22.51
2022-08-24T10:14:43.575Z,22.06
2022-08-24T10:15:55.403Z,22.11
2022-08-24T10:17:09.691Z,22.17
2022-08-24T10:18:29.574Z,22.11
2022-08-24T10:19:51.814Z,22.20
2022-08-24T10:21:08.971Z,22.62
2022-08-24T10:22:23.014Z,22.38
2022-08-24T10:23:41.176Z,22.63
2022-08-24T10:25:00.049Z,22.88
2022-08-24T10:26:08.513Z,23.45
2022-08-24T10:27:31.389Z,23.42
2022-08-24T10:28:49.818Z,22.84
2022-08-24T10:30:25.985Z,22.22
2022-08-24T10:31:45.277Z,22.31
2022-08-24T10:32:57.108Z,22.02
2022-08-24T10:34:26.188Z,22.00
2022-08-24T10:35:33.025Z,22.10
2022-08-24T10:37:01.117Z,22.19
2022-08-24T10:38:24.102Z,22.97
2022-08-24T10:39:52.869Z,23.05
2022-08-24T10:41:16.382Z,23.38
2022-08-24T10:42:43.684Z,23.16
2022-08-24T10:44:09.352Z,22.40
2022-08-24T10:45:35.116Z,22.28
2022-08-24T10:46:48.036Z,22.60
2022-08-24T10:48:09.985Z,22.38
2022-08-24T10:50:11.303Z,22.46
2022-08-24T10:51:28.948Z,22.79
2022-08-24T10:52:53.027Z,23.02
2022-08-24T10:53:55.571Z,22.90
2022-08-24T10:55:12.457Z,23.10
2022-08-24T10:56:16.022Z,23.26
2022-08-24T10:57:25.491Z,23.14
2022-08-24T10:58:52.914Z,23.36
2022-08-24T11:00:04.677Z,23.29
2022-08-24T11:01:19.865Z,22.51
2022-08-24T11:02:32.563Z,22.83
2022-08-24T11:03:48.754Z,22.64
2022-08-24T11:04:56.323Z,22.16
2022-08-24T11:05:58.050Z,22.44
2022-08-24T11:07:07.876Z,22.46
2022-08-24T11:08:17.497Z,22.45
2022-08-24T11:09:20.089Z,22.80
2022-08-24T11:10:25.291Z,22.62
2022-08-24T11:11:32.528Z,22.74
2022-08-24T11:12:35.917Z,22.57
2022-08-24T11:13:49.584Z,23.01
2022-08-24T11:14:52.539Z,22.90
2022-08-24T11:15:55.990Z,23.23
2022-08-24T11:17:16.916Z,23.43
2022-08-24T11:18:20.431Z,23.40
2022-08-24T11:19:32.033Z,23.61
2022-08-24T11:20:41.320Z,23.48
2022-08-24T11:21:51.813Z,22.85
2022-08-24T11:23:02.173Z,22.56
2022-08-24T11:24:06.346Z,22.65
2022-08-24T11:25:14.795Z,22.72
2022-08-24T11:26:21.452Z,23.04
2022-08-24T11:27:31.115Z,23.46
2022-08-24T11:28:38.600Z,23.32
2022-08-24T11:29:59.995Z,23.35
2022-08-24T11:31:01.514Z,23.28
2022-08-24T11:32:03.456Z,23.23
2022-08-24T11:33:25.846Z,23.62
2022-08-24T11:34:35.606Z,23.40
2022-08-24T11:35:38.439Z,23.50
2022-08-24T11:36:40.888Z,23.54
2022-08-24T11:37:42.812Z,23.49
2022-08-24T11:38:45.934Z,23.61
2022-08-24T11:39:47.605Z,23.50
2022-08-24T11:40:55.121Z,23.37
2022-08-24T11:42:02.269Z,23.65
2022-08-24T11:43:16.725Z,23.63
2022-08-24T11:44:29.468Z,23.43
2022-08-24T11:45:36.631Z,23.78
2022-08-24T11:46:48.262Z,23.52
2022-08-24T11:48:00.676Z,23.05
2022-08-24T11:49:09.475Z,22.65
2022-08-24T11:50:29.328Z,22.40
2022-08-24T11:51:40.683Z,22.58
2022-08-24T11:52:50.410Z,22.64
2022-08-24T11:54:03.417Z,23.06
2022-08-24T11:55:14.635Z,23.33
2022-08-24T11:56:25.642Z,23.26
2022-08-24T11:57:34.084Z,23.33
2022-08-24T11:58:45.467Z,23.57
2022-08-24T11:59:54.928Z,22.96
2022-08-24T12:01:00.212Z,23.18
2022-08-24T12:02:07.977Z,23.30
2022-08-24T12:03:36.334Z,23.21
2022-08-24T12:04:49.351Z,22.88
2022-08-24T12:05:58.854Z,22.96
2022-08-24T12:07:08.661Z,23.26
2022-08-24T12:08:21.034Z,23.54
2022-08-24T12:09:43.671Z,23.44
2022-08-24T12:10:51.518Z,23.41
2022-08-24T12:12:02.923Z,23.24
2022-08-24T12:13:09.756Z,22.77
2022-08-24T12:14:19.958Z,23.00
2022-08-24T12:15:34.126Z,22.77
2022-08-24T12:16:42.844Z,23.19
2022-08-24T12:17:50.955Z,23.04
2022-08-24T12:18:58.323Z,23.24
2022-08-24T12:20:05.181Z,22.69
2022-08-24T12:21:12.542Z,22.50
2022-08-24T12:22:15.864Z,22.85
2022-08-24T12:23:23.921Z,22.61
2022-08-24T12:24:31.162Z,22.47
2022-08-24T12:25:33.332Z,22.40
2022-08-24T12:26:38.514Z,22.37
2022-08-24T12:27:40.112Z,23.00
2022-08-24T12:28:51.165Z,22.81
2022-08-24T12:30:01.958Z,23.09
2022-08-24T12:31:12.622Z,23.20
2022-08-24T12:32:18.587Z,23.29
2022-08-24T12:33:26.737Z,23.06
2022-08-24T12:34:37.068Z,23.05
2022-08-24T12:35:42.537Z,22.95
2022-08-24T12:36:56.023Z,22.88
2022-08-24T12:38:03.327Z,22.84
2022-08-24T12:39:10.555Z,23.05
2022-08-24T12:40:22.002Z,22.97
2022-08-24T12:41:28.924Z,22.79
2022-08-24T12:42:38.152Z,22.90
2022-08-24T12:43:44.725Z,23.06
2022-08-24T12:44:52.501Z,23.24
2022-08-24T12:45:56.061Z,23.18
2022-08-24T12:46:57.676Z,23.36
2022-08-24T12:48:05.961Z,23.32
2022-08-24T12:49:14.497Z,23.33
2022-08-24T12:50:25.269Z,23.27
2022-08-24T12:51:49.761Z,23.19
2022-08-24T12:53:22.522Z,23.42
2022-08-24T12:54:48.574Z,23.76
2022-08-24T12:56:05.454Z,23.69
2022-08-24T12:57:15.354Z,23.69
2022-08-24T12:58:34.824Z,23.53
2022-08-24T12:59:43.053Z,23.00
2022-08-24T13:00:46.771Z,22.96
2022-08-24T13:01:58.359Z,23.12
2022-08-24T13:03:04.475Z,23.48
2022-08-24T13:04:12.225Z,23.53
2022-08-24T13:05:15.955Z,23.66
2022-08-24T13:06:20.375Z,23.63
2022-08-24T13:07:28.830Z,23.86
2022-08-24T13:08:38.431Z,23.89
2022-08-24T13:09:45.603Z,24.01
2022-08-24T13:10:53.881Z,23.91
2022-08-24T13:11:56.148Z,23.78
2022-08-24T13:13:20.405Z,23.55
2022-08-24T13:14:23.768Z,22.98
2022-08-24T13:15:54.345Z,23.16
2022-08-24T13:17:17.875Z,23.34
2022-08-24T13:19:09.464Z,22.94
2022-08-24T13:20:20.804Z,22.86
2022-08-24T13:21:36.195Z,22.99
2022-08-24T13:22:46.724Z,23.35
2022-08-24T13:24:28.241Z,23.46
2022-08-24T13:25:57.721Z,23.66
2022-08-24T13:27:49.275Z,23.63
2022-08-24T13:28:55.575Z,23.15
2022-08-24T13:30:06.685Z,23.25
2022-08-24T13:31:21.489Z,23.09
2022-08-24T13:32:31.480Z,23.54
2022-08-24T13:33:42.392Z,23.52
2022-08-24T13:34:46.925Z,23.60
2022-08-24T13:36:02.048Z,23.70
2022-08-24T13:37:13.927Z,23.69
2022-08-24T13:38:42.546Z,23.79
2022-08-24T13:40:08.291Z,23.82
2022-08-24T13:41:20.543Z,23.81
2022-08-24T13:42:41.031Z,23.87
2022-08-24T13:43:51.581Z,23.96
2022-08-24T13:45:08.126Z,24.13
2022-08-24T13:46:17.276Z,24.01
2022-08-24T13:47:25.907Z,23.66
2022-08-24T13:48:44.811Z,23.41
2022-08-24T13:49:56.277Z,23.14
2022-08-24T13:51:29.594Z,23.37
2022-08-24T13:52:44.494Z,23.46
2022-08-24T13:53:58.159Z,23.60
2022-08-24T13:55:13.490Z,23.61
2022-08-24T13:56:32.691Z,23.46
2022-08-24T13:57:40.973Z,23.24
2022-08-24T13:58:52.453Z,23.62
2022-08-24T14:00:10.292Z,23.80
2022-08-24T14:01:26.670Z,23.56
2022-08-24T14:02:38.887Z,23.38
2022-08-24T14:04:07.346Z,23.32
2022-08-24T14:05:23.737Z,23.48
2022-08-24T14:06:33.593Z,23.53
2022-08-24T14:07:52.070Z,23.65
2022-08-24T14:09:05.112Z,23.74
2022-08-24T14:10:11.260Z,23.87
2022-08-24T14:11:20.530Z,24.03
2022-08-24T14:12:38.733Z,23.90
2022-08-24T14:13:56.532Z,23.77
2022-08-24T14:15:09.106Z,23.84
2022-08-24T14:16:21.952Z,23.81
2022-08-24T14:17:36.844Z,23.89
2022-08-24T14:18:52.642Z,24.05
2022-08-24T14:20:02.881Z,23.92
2022-08-24T14:21:10.213Z,23.82
2022-08-24T14:22:27.901Z,23.82
2022-08-24T14:23:48.349Z,24.06
2022-08-24T14:25:01.834Z,24.06
2022-08-24T14:26:41.005Z,23.96
2022-08-24T14:27:44.745Z,24.01
2022-08-24T14:28:46.811Z,23.94
2022-08-24T14:29:48.758Z,24.19
2022-08-24T14:31:14.040Z,24.21
2022-08-24T14:32:44.591Z,24.17